createdAt,value
2022-11-03T00:07:13.922Z,11.1
2022-11-03T00:17:14.477Z,10.9
2022-11-03T00:27:15.159Z,10.8
2022-11-03T00:37:15.954Z,10.8
2022-11-03T00:57:17.732Z,10.8
2022-11-03T01:07:18.606Z,10.9
2022-11-03T01:27:19.687Z,11.4
2022-11-03T01:37:19.781Z,11.6
2022-11-03T01:47:20.313Z,11.7
2022-11-03T01:57:20.966Z,11.7
2022-11-03T02:07:21.185Z,11.7
2022-11-03T02:17:21.691Z,11.7
2022-11-03T02:27:22.779Z,11.6
2022-11-03T02:37:23.599Z,11.7
2022-11-03T02:47:24.581Z,11.6
2022-11-03T02:57:24.864Z,11.5
2022-11-03T03:07:25.387Z,11.4
2022-11-03T03:17:26.039Z,11.3
2022-11-03T03:27:26.590Z,11.4
2022-11-03T03:37:27.655Z,11.4
2022-11-03T03:47:28.241Z,11.4
2022-11-03T03:57:28.835Z,11.4
2022-11-03T04:17:30.736Z,11.3
2022-11-03T04:27:31.177Z,11.4
2022-11-03T04:37:31.411Z,11.4
2022-11-03T04:47:32.255Z,11.4
2022-11-03T04:57:33.336Z,11.4
2022-11-03T05:07:34.068Z,11.4
2022-11-03T05:17:34.474Z,11.4
2022-11-03T05:27:34.703Z,11.5
2022-11-03T05:37:35.729Z,11.6
2022-11-03T05:47:36.747Z,11.7
2022-11-03T05:57:37.107Z,11.7
2022-11-03T06:07:37.631Z,11.7
2022-11-03T06:17:37.987Z,11.8
2022-11-03T06:27:38.126Z,12
2022-11-03T06:37:38.637Z,12.1
2022-11-03T06:47:38.807Z,12.1
2022-11-03T07:07:39.491Z,12.3
2022-11-03T07:17:39.930Z,12.4
2022-11-03T07:27:40.509Z,12.5
2022-11-03T07:37:40.840Z,12.6
2022-11-03T07:47:41.447Z,12.7
2022-11-03T07:57:41.845Z,12.8
2022-11-03T08:17:43.241Z,13.3
2022-11-03T08:27:43.596Z,13.5
2022-11-03T08:37:44.148Z,13.6
2022-11-03T08:47:45.139Z,13.7
2022-11-03T08:57:46.031Z,13.7
2022-11-03T09:17:46.973Z,14.2
2022-11-03T09:27:48.063Z,14.3
2022-11-03T09:37:48.754Z,14.6
2022-11-03T09:47:49.293Z,14.9
2022-11-03T09:57:49.912Z,15.2
2022-11-03T10:07:50.777Z,15.2
2022-11-03T10:08:13.107Z,15.3
2022-11-03T10:17:57.789Z,15.7
2022-11-03T10:27:58.197Z,15.9
2022-11-03T10:37:59.101Z,15.8
2022-11-03T10:48:00.768Z,15.6
2022-11-03T11:08:01.711Z,15.6
2022-11-03T11:18:02.354Z,15.6
2022-11-03T11:28:03.277Z,15.6
2022-11-03T11:38:03.783Z,15.5
2022-11-03T11:48:04.244Z,15.7
2022-11-03T11:58:05.231Z,16.4
2022-11-03T12:08:06.301Z,17
2022-11-03T12:18:06.692Z,17.1
2022-11-03T12:28:07.264Z,17.2
2022-11-03T12:38:07.985Z,16.9
2022-11-03T12:48:09.001Z,16.6
2022-11-03T12:58:10.082Z,16.5
2022-11-03T13:08:10.059Z,16.6
2022-11-03T13:18:13.957Z,16.6
2022-11-03T13:28:10.620Z,16.3
2022-11-03T14:08:11.607Z,15.9
2022-11-03T14:18:12.004Z,15.8
2022-11-03T14:28:14.687Z,15.6
2022-11-03T14:38:13.216Z,15.6
2022-11-03T15:08:15.197Z,15.2
2022-11-03T15:28:16.044Z,14.9
2022-11-03T15:38:16.430Z,14.3
2022-11-03T15:58:17.704Z,13.5
2022-11-03T16:08:18.320Z,13.4
2022-11-03T16:18:19.362Z,13.2
2022-11-03T16:28:19.735Z,12.8
2022-11-03T16:38:20.450Z,12.5
2022-11-03T16:48:21.403Z,12.3
2022-11-03T16:58:22.157Z,12.2
2022-11-03T17:18:22.814Z,12.1
2022-11-03T17:28:23.454Z,12.1
2022-11-03T17:58:24.595Z,11.9
2022-11-03T18:08:25.405Z,11.9
2022-11-03T18:18:26.228Z,12
2022-11-03T18:28:27.301Z,12
2022-11-03T18:38:28.407Z,12
2022-11-03T18:48:28.814Z,12
2022-11-03T18:58:29.186Z,12
2022-11-03T19:08:30.107Z,12
2022-11-03T19:18:30.452Z,12.1
2022-11-03T19:28:31.341Z,12.2
2022-11-03T19:38:31.717Z,12.3
2022-11-03T19:48:32.780Z,12.4
2022-11-03T19:58:33.202Z,12.4
2022-11-03T20:08:33.869Z,12.3
2022-11-03T20:18:34.659Z,12.3
2022-11-03T20:28:35.551Z,12.2
2022-11-03T20:38:36.183Z,12.1
2022-11-03T20:48:36.354Z,12.1
2022-11-03T20:58:36.527Z,12.1
2022-11-03T21:08:36.677Z,12.2
2022-11-03T21:18:37.637Z,12.2
2022-11-03T21:28:38.469Z,12.3
2022-11-03T21:38:39.179Z,12.4
2022-11-03T21:48:39.557Z,12.4
2022-11-03T21:58:39.713Z,12.4
2022-11-03T22:08:40.494Z,12.4
2022-11-03T22:18:40.911Z,12.4
2022-11-03T22:28:41.547Z,12.5
2022-11-03T22:38:42.273Z,12.5
2022-11-03T22:48:43.252Z,12.5
2022-11-03T22:58:43.917Z,12.5
2022-11-03T23:08:44.500Z,12.5
2022-11-03T23:18:44.999Z,12.3
2022-11-03T23:38:45.614Z,11.2
2022-11-03T23:48:45.883Z,10.9
2022-11-03T23:58:46.096Z,10.7
